Time;durP1;ratioP1;P1;durP2;ratioP2;P2;SDS_P1;SDS_P2;PMS_P1;PMS_P2;Temp;Humidity;BMP_temperature;BMP_pressure;BME280_temperature;BME280_humidity;BME280_pressure;Samples;Min_cycle;Max_cycle;Signal;HPM_P1;HPM_P2
2024/02/15 00:02:58;;;;;;;52.00;25.70;;;;;;;7.92;59.86;99542.52;232204;198;236185;-63
2024/02/15 00:08:02;;;;;;;47.20;24.30;;;;;;;7.93;60.11;99541.77;232198;204;151667;-63
2024/02/15 00:13:06;;;;;;;55.50;25.50;;;;;;;7.90;60.12;99552.48;232256;200;137074;-61
2024/02/15 00:18:09;;;;;;;53.00;25.10;;;;;;;7.84;59.97;99555.92;232232;197;138621;-64
2024/02/15 00:23:12;;;;;;;59.80;25.90;;;;;;;7.82;60.47;99553.86;232174;201;152408;-57
2024/02/15 00:28:16;;;;;;;65.30;26.60;;;;;;;7.82;60.60;99551.23;232083;202;137597;-58
2024/02/15 00:33:20;;;;;;;51.70;25.90;;;;;;;7.78;60.88;99549.10;231614;205;138179;-59
2024/02/15 00:38:23;;;;;;;48.30;25.30;;;;;;;7.76;60.83;99550.06;231681;199;151304;-60
2024/02/15 00:43:27;;;;;;;50.30;24.80;;;;;;;7.75;60.87;99548.02;231804;198;138679;-60
2024/02/15 00:48:30;;;;;;;52.90;26.00;;;;;;;7.71;60.97;99544.63;231716;198;139281;-58
2024/02/15 00:53:34;;;;;;;54.20;24.70;;;;;;;7.67;61.00;99545.67;231847;202;151469;-59
2024/02/15 00:58:37;;;;;;;53.90;25.90;;;;;;;7.60;60.83;99551.27;231822;205;138057;-59
2024/02/15 01:03:40;;;;;;;48.00;24.60;;;;;;;7.57;61.07;99551.56;231980;198;136720;-59
2024/02/15 01:08:44;;;;;;;52.60;26.30;;;;;;;7.54;61.09;99551.35;231820;204;152581;-60
2024/02/15 01:13:47;;;;;;;56.60;24.10;;;;;;;7.53;61.10;99549.95;231740;198;137650;-61
2024/02/15 01:18:50;;;;;;;44.80;20.70;;;;;;;7.55;60.47;99544.95;231750;202;137239;-60
2024/02/15 01:23:53;;;;;;;34.90;18.90;;;;;;;7.61;60.09;99544.16;232133;198;151420;-58
2024/02/15 01:28:57;;;;;;;35.20;18.90;;;;;;;7.71;59.16;99546.23;232076;197;137382;-59
2024/02/15 01:34:00;;;;;;;37.80;18.40;;;;;;;7.76;59.07;99550.95;232294;202;139884;-63
2024/02/15 01:39:03;;;;;;;30.50;16.90;;;;;;;7.83;58.84;99551.36;232131;198;151906;-64
2024/02/15 01:44:07;;;;;;;33.10;17.90;;;;;;;7.93;58.21;99549.17;232064;198;138663;-61
2024/02/15 01:49:11;;;;;;;36.00;17.30;;;;;;;8.03;58.08;99553.52;231923;197;137776;-62
2024/02/15 01:54:17;;;;;;;33.30;16.60;;;;;;;8.13;57.71;99550.60;231994;204;153446;-62
2024/02/15 01:59:23;;;;;;;32.80;17.50;;;;;;;8.18;57.68;99551.61;232041;201;137489;-62
2024/02/15 02:04:26;;;;;;;29.80;17.50;;;;;;;8.22;57.52;99555.50;232160;200;137671;-60
2024/02/15 02:09:29;;;;;;;33.00;17.80;;;;;;;8.28;57.55;99553.99;232095;202;154386;-62
2024/02/15 02:14:32;;;;;;;36.70;19.70;;;;;;;8.34;57.35;99550.39;232003;198;138075;-62
2024/02/15 02:19:38;;;;;;;40.50;19.60;;;;;;;8.37;57.84;99551.14;232106;201;137295;-62
2024/02/15 02:25:03;;;;;;;37.50;20.00;;;;;;;8.38;58.08;99552.34;231998;197;152948;-62
2024/02/15 02:30:21;;;;;;;39.00;19.50;;;;;;;8.43;58.00;99548.78;232060;201;138059;-60
2024/02/15 02:35:26;;;;;;;42.20;21.40;;;;;;;8.46;57.86;99545.27;231880;198;137860;-60
2024/02/15 02:40:29;;;;;;;42.60;22.10;;;;;;;8.49;58.14;99541.58;231889;198;153267;-59
2024/02/15 02:45:32;;;;;;;44.50;24.10;;;;;;;8.50;59.12;99537.15;232099;197;137440;-60
2024/02/15 02:50:35;;;;;;;50.50;21.40;;;;;;;8.46;58.71;99534.31;232027;204;138009;-58
2024/02/15 02:55:40;;;;;;;42.20;21.20;;;;;;;8.44;58.70;99534.20;232149;204;153579;-58
2024/02/15 03:00:44;;;;;;;40.40;20.90;;;;;;;8.46;58.39;99536.42;232004;204;139208;-60
2024/02/15 03:05:48;;;;;;;43.20;21.60;;;;;;;8.45;58.41;99538.05;232077;204;137613;-60
2024/02/15 03:10:51;;;;;;;42.80;21.90;;;;;;;8.46;58.41;99534.32;232129;201;154385;-60
2024/02/15 03:15:54;;;;;;;44.20;21.60;;;;;;;8.43;58.22;99534.27;231991;200;137427;-61
2024/02/15 03:20:58;;;;;;;45.00;21.20;;;;;;;8.41;58.24;99537.36;231917;198;137840;-63
2024/02/15 03:26:03;;;;;;;45.30;22.40;;;;;;;8.42;58.31;99535.72;231965;204;153762;-62
2024/02/15 03:31:07;;;;;;;40.60;21.00;;;;;;;8.45;58.37;99534.88;231920;197;141925;-62
2024/02/15 03:36:11;;;;;;;39.20;20.60;;;;;;;8.48;58.41;99531.73;232060;201;137346;-60
2024/02/15 03:41:15;;;;;;;37.20;20.50;;;;;;;8.49;58.61;99530.65;231927;199;154290;-60
2024/02/15 03:46:18;;;;;;;36.80;19.80;;;;;;;8.48;58.58;99529.08;232053;204;138122;-60
2024/02/15 03:51:23;;;;;;;44.40;21.30;;;;;;;8.50;59.39;99531.64;232018;197;137609;-59
2024/02/15 03:56:26;;;;;;;54.90;22.30;;;;;;;8.51;60.02;99536.73;231485;204;153085;-58
2024/02/15 04:01:34;;;;;;;57.90;22.70;;;;;;;8.51;60.54;99534.60;232098;202;139321;-59
2024/02/15 04:06:38;;;;;;;55.30;23.90;;;;;;;8.53;60.72;99538.05;232051;202;248543;-59
2024/02/15 04:11:41;;;;;;;52.90;23.60;;;;;;;8.53;61.02;99537.70;231912;198;154178;-61
2024/02/15 04:16:45;;;;;;;51.70;24.60;;;;;;;8.50;61.04;99538.73;231790;201;139685;-60
2024/02/15 04:21:48;;;;;;;54.70;24.30;;;;;;;8.48;61.50;99533.70;232083;200;138159;-61
2024/02/15 04:26:52;;;;;;;58.40;24.60;;;;;;;8.47;61.80;99534.60;232057;204;153929;-60
2024/02/15 04:31:57;;;;;;;62.30;25.20;;;;;;;8.45;62.12;99534.17;231750;205;138798;-60
2024/02/15 04:37:06;;;;;;;223.70;155.60;;;;;;;8.49;63.09;99540.73;232009;204;138621;-61
2024/02/15 04:42:11;;;;;;;175.40;107.10;;;;;;;8.53;62.22;99538.58;232133;197;154445;-60
2024/02/15 04:47:14;;;;;;;102.70;57.20;;;;;;;8.52;62.00;99535.43;231965;197;139377;-60
2024/02/15 04:52:17;;;;;;;51.00;26.40;;;;;;;8.52;61.90;99534.19;232048;204;138111;-60
2024/02/15 04:57:21;;;;;;;52.20;24.50;;;;;;;8.51;61.57;99536.73;231944;198;154973;-59
2024/02/15 05:02:25;;;;;;;44.40;23.20;;;;;;;8.50;61.52;99542.97;232006;198;139214;-61
2024/02/15 05:07:28;;;;;;;44.10;23.60;;;;;;;8.49;61.26;99545.31;231847;198;137705;-63
2024/02/15 05:12:33;;;;;;;155.90;107.40;;;;;;;8.50;61.47;99548.25;231935;204;152201;-63
2024/02/15 05:17:40;;;;;;;55.50;30.80;;;;;;;8.55;61.01;99554.77;231803;200;139173;-61
2024/02/15 05:22:47;;;;;;;45.90;23.90;;;;;;;8.55;60.99;99561.31;232070;200;139891;-61
2024/02/15 05:27:54;;;;;;;40.90;22.00;;;;;;;8.57;61.44;99564.04;232056;202;153306;-61
2024/02/15 05:33:01;;;;;;;;;;;;;;;8.54;61.47;99564.36;231857;201;138146;-60
2024/02/15 05:38:06;;;;;;;39.40;23.10;;;;;;;8.51;61.34;99566.06;231992;204;137392;-61
2024/02/15 05:43:09;;;;;;;39.70;23.60;;;;;;;8.52;61.52;99571.34;231808;204;154926;-62
2024/02/15 05:48:12;;;;;;;72.60;45.90;;;;;;;8.53;61.65;99574.11;231823;198;138289;-62
2024/02/15 05:53:17;;;;;;;41.20;23.20;;;;;;;8.61;61.58;99569.87;232016;197;137527;-61
2024/02/15 05:58:21;;;;;;;43.50;23.80;;;;;;;8.61;61.51;99569.70;232101;205;154524;-61
2024/02/15 06:03:26;;;;;;;48.50;24.10;;;;;;;8.64;61.69;99573.66;231983;204;137255;-62
2024/02/15 06:08:30;;;;;;;47.20;23.80;;;;;;;8.64;61.78;99574.16;231881;205;137848;-62
2024/02/15 06:13:33;;;;;;;50.80;24.10;;;;;;;8.65;61.80;99574.28;231821;201;153248;-62
2024/02/15 06:18:37;;;;;;;55.90;23.30;;;;;;;8.68;61.63;99579.45;231853;197;141336;-61
2024/02/15 06:23:41;;;;;;;50.40;22.50;;;;;;;8.70;61.53;99578.86;231878;205;138274;-62
2024/02/15 06:39:46;;;;;;;57.40;24.40;;;;;;;8.76;61.93;99588.66;232094;200;141539;-61
2024/02/15 06:44:50;;;;;;;48.80;23.10;;;;;;;8.79;62.03;99592.27;232026;204;153019;-61
2024/02/15 06:49:53;;;;;;;47.90;22.60;;;;;;;8.78;62.32;99601.99;231952;199;138361;-62
2024/02/15 06:54:57;;;;;;;53.80;23.30;;;;;;;8.76;62.58;99601.92;231905;201;139151;-62
2024/02/15 07:00:09;;;;;;;57.70;24.10;;;;;;;8.75;62.70;99601.11;232129;204;153506;-63
2024/02/15 07:05:12;;;;;;;49.30;23.50;;;;;;;8.78;62.74;99601.66;232058;198;138272;-61
2024/02/15 07:10:18;;;;;;;53.50;22.50;;;;;;;8.86;62.37;99608.37;232111;204;138510;-62
2024/02/15 07:15:21;;;;;;;;;;;;;;;8.96;62.38;99604.91;231940;197;155425;-61
2024/02/15 07:20:25;;;;;;;57.10;23.20;;;;;;;8.98;62.38;99603.77;232233;200;137452;-60
2024/02/15 07:25:28;;;;;;;57.30;24.90;;;;;;;8.99;61.63;99604.23;231944;198;139698;-60
2024/02/15 07:30:32;;;;;;;63.30;27.90;;;;;;;9.06;61.94;99609.94;232153;204;153106;-61
2024/02/15 07:35:35;;;;;;;71.30;32.00;;;;;;;9.12;61.22;99611.58;231828;198;138267;-60
2024/02/15 07:40:39;;;;;;;62.00;31.50;;;;;;;9.22;60.28;99611.48;231955;198;139067;-59
2024/02/15 07:45:42;;;;;;;67.90;30.30;;;;;;;9.33;59.99;99613.80;232301;204;153976;-60
2024/02/15 07:50:46;;;;;;;65.30;30.50;;;;;;;9.44;60.01;99607.77;232025;201;137472;-60
2024/02/15 07:55:50;;;;;;;63.80;27.80;;;;;;;9.58;60.30;99601.77;231972;198;137637;-60
2024/02/15 08:00:53;;;;;;;62.20;27.70;;;;;;;9.73;60.01;99599.95;232089;204;154368;-59
2024/02/15 08:05:56;;;;;;;55.20;27.20;;;;;;;9.87;59.62;99600.14;231994;201;137404;-60
2024/02/15 08:11:02;;;;;;;90.70;28.30;;;;;;;10.03;59.82;99598.66;231868;197;138118;-60
2024/02/15 08:16:05;;;;;;;72.00;27.60;;;;;;;10.17;59.96;99599.33;231583;198;154119;-60
2024/02/15 08:21:09;;;;;;;57.50;28.00;;;;;;;10.27;59.89;99601.02;231947;197;137606;-60
2024/02/15 08:26:12;;;;;;;67.90;29.00;;;;;;;10.32;60.02;99603.77;231806;199;138204;-60
2024/02/15 08:31:16;;;;;;;101.30;28.30;;;;;;;10.36;59.77;99605.80;231955;200;154082;-60
2024/02/15 08:36:20;;;;;;;120.80;31.60;;;;;;;10.41;59.67;99605.95;231931;201;139223;-60
2024/02/15 08:41:26;;;;;;;90.60;30.10;;;;;;;10.46;59.47;99609.05;231838;198;139845;-60
2024/02/15 08:46:31;;;;;;;80.80;31.10;;;;;;;10.49;59.50;99612.08;231817;198;153382;-60
2024/02/15 08:51:34;;;;;;;83.30;29.60;;;;;;;10.51;59.50;99609.48;232065;204;138356;-61
2024/02/15 08:56:37;;;;;;;70.60;28.20;;;;;;;10.61;59.11;99615.17;232035;204;141690;-61
2024/02/15 09:01:43;;;;;;;75.20;27.20;;;;;;;10.69;58.84;99613.86;231842;198;153282;-60
2024/02/15 09:06:46;;;;;;;68.10;26.40;;;;;;;10.73;58.87;99613.61;231945;204;138496;-61
2024/02/15 09:11:49;;;;;;;71.00;26.50;;;;;;;10.78;58.98;99612.13;231837;197;138413;-60
2024/02/15 09:16:52;;;;;;;83.20;27.70;;;;;;;10.86;59.13;99614.17;231954;202;155391;-60
2024/02/15 09:21:56;;;;;;;63.20;26.70;;;;;;;10.95;58.99;99619.58;231949;197;137921;-61
2024/02/15 09:27:01;;;;;;;64.60;26.50;;;;;;;11.01;58.99;99622.06;231721;198;138218;-60
2024/02/15 09:32:06;;;;;;;68.90;28.50;;;;;;;11.04;58.81;99620.31;232037;204;153766;-61
2024/02/15 09:37:09;;;;;;;77.90;29.10;;;;;;;11.06;58.72;99627.33;231903;201;138356;-61
2024/02/15 09:42:13;;;;;;;69.80;27.70;;;;;;;11.09;58.75;99625.35;231959;205;137791;-61
2024/02/15 09:47:18;;;;;;;78.30;33.60;;;;;;;11.17;59.21;99624.40;232043;198;153849;-61
2024/02/15 09:52:22;;;;;;;64.90;26.80;;;;;;;11.28;58.64;99619.88;231628;197;138235;-60
2024/02/15 09:57:27;;;;;;;60.70;26.20;;;;;;;11.33;58.04;99621.35;231964;197;139256;-60
2024/02/15 10:02:32;;;;;;;60.90;24.50;;;;;;;11.44;57.95;99618.98;231892;201;153718;-61
2024/02/15 10:07:35;;;;;;;55.60;24.50;;;;;;;11.58;57.71;99609.66;231637;199;138332;-61
2024/02/15 10:12:38;;;;;;;65.10;24.50;;;;;;;11.70;57.05;99599.91;231878;197;138155;-60
2024/02/15 10:17:54;;;;;;;48.90;23.00;;;;;;;11.80;56.99;99594.73;231858;204;153757;-61
2024/02/15 10:23:10;;;;;;;47.50;22.90;;;;;;;11.95;56.68;99593.33;231554;197;139359;-60
2024/02/15 10:28:15;;;;;;;;;;;;;;;12.11;56.40;99590.26;232075;200;139251;-61
2024/02/15 10:33:25;;;;;;;57.30;25.00;;;;;;;12.25;56.31;99579.97;231893;203;153176;-61
2024/02/15 10:38:28;;;;;;;40.70;19.60;;;;;;;12.46;56.00;99574.06;231886;201;138422;-60
2024/02/15 10:43:38;;;;;;;21.30;10.30;;;;;;;12.65;55.67;99576.66;231778;198;138143;-61
2024/02/15 10:48:43;;;;;;;21.60;10.80;;;;;;;12.82;55.23;99568.67;231830;201;154850;-61
2024/02/15 10:53:51;;;;;;;;;;;;;;;13.00;54.93;99562.52;231923;201;138312;-61
2024/02/15 10:59:09;;;;;;;15.40;9.70;;;;;;;13.24;54.65;99553.13;232049;198;137609;-61
2024/02/15 11:04:15;;;;;;;12.00;5.50;;;;;;;13.57;54.11;99543.71;231940;197;153073;-61
2024/02/15 11:09:19;;;;;;;9.60;5.10;;;;;;;13.87;53.20;99543.64;231813;201;138077;-61
2024/02/15 11:14:23;;;;;;;11.50;5.60;;;;;;;14.19;53.09;99541.52;231854;199;139100;-61
2024/02/15 11:19:35;;;;;;;18.00;9.20;;;;;;;14.53;52.60;99538.98;231826;198;153177;-59
2024/02/15 11:24:49;;;;;;;15.00;8.60;;;;;;;14.83;51.98;99528.95;231840;198;137689;-60
2024/02/15 11:30:09;;;;;;;14.20;7.90;;;;;;;15.08;51.20;99526.44;231838;204;137766;-59
2024/02/15 11:35:16;;;;;;;13.20;8.10;;;;;;;15.33;50.79;99522.50;232005;200;153008;-59
2024/02/15 11:40:28;;;;;;;12.40;6.80;;;;;;;15.52;49.90;99518.56;232114;197;138250;-58
2024/02/15 11:45:34;;;;;;;10.00;7.00;;;;;;;15.54;49.39;99513.58;231883;199;138602;-58
2024/02/15 11:50:39;;;;;;;;;;;;;;;15.77;49.09;99508.28;231482;205;154347;-61
2024/02/15 11:55:42;;;;;;;13.00;7.30;;;;;;;16.02;48.32;99501.92;232023;204;137440;-61
2024/02/15 12:22:47;;;;;;;12.70;6.10;;;;;;;17.07;45.81;99488.60;231822;201;153767;-62
2024/02/15 12:27:55;;;;;;;12.10;6.00;;;;;;;17.10;45.32;99483.68;232118;202;137778;-62
2024/02/15 12:33:12;;;;;;;14.00;6.70;;;;;;;17.15;45.04;99476.80;231752;198;137499;-62
2024/02/15 12:38:16;;;;;;;15.30;6.70;;;;;;;17.16;44.99;99473.30;232038;204;154060;-62
2024/02/15 12:43:20;;;;;;;8.30;5.20;;;;;;;17.13;45.05;99478.28;231952;198;138059;-61
2024/02/15 12:48:24;;;;;;;12.10;5.10;;;;;;;17.16;44.86;99473.13;231940;204;137857;-62
2024/02/15 12:53:27;;;;;;;8.40;5.80;;;;;;;17.16;44.69;99468.27;231999;198;153255;-62
2024/02/15 12:58:31;;;;;;;12.80;6.00;;;;;;;17.10;44.57;99460.23;231896;197;138479;-60
2024/02/15 13:03:34;;;;;;;11.10;5.10;;;;;;;17.09;44.83;99458.34;231991;202;137721;-62
2024/02/15 13:08:38;;;;;;;8.40;4.20;;;;;;;17.02;44.67;99455.81;231736;198;153451;-61
2024/02/15 13:13:42;;;;;;;11.30;4.10;;;;;;;16.97;44.61;99447.80;231880;198;138227;-61
2024/02/15 13:18:46;;;;;;;7.80;3.50;;;;;;;16.95;44.31;99444.03;231990;204;138399;-62
2024/02/15 13:23:51;;;;;;;13.00;3.80;;;;;;;16.82;44.42;99447.95;231863;201;154913;-62
2024/02/15 13:28:54;;;;;;;9.60;3.70;;;;;;;16.78;44.74;99445.08;231892;198;143092;-62
2024/02/15 13:33:58;;;;;;;10.50;3.90;;;;;;;16.85;44.73;99437.34;232065;199;137967;-62
2024/02/15 13:39:04;;;;;;;7.20;3.70;;;;;;;16.96;44.54;99432.29;231752;198;153870;-62
2024/02/15 13:44:08;;;;;;;6.50;3.50;;;;;;;16.94;44.65;99430.48;231867;205;139626;-62
2024/02/15 13:49:12;;;;;;;6.10;3.90;;;;;;;16.97;44.73;99427.42;231737;198;137975;-62
2024/02/15 13:54:31;;;;;;;11.20;4.20;;;;;;;16.93;44.65;99427.35;231936;201;153394;-61
2024/02/15 13:59:34;;;;;;;9.40;4.10;;;;;;;16.79;45.01;99432.05;231886;204;138472;-61
2024/02/15 14:04:38;;;;;;;6.00;3.30;;;;;;;16.59;45.15;99432.41;231856;204;138122;-61
2024/02/15 14:09:41;;;;;;;7.80;3.60;;;;;;;16.31;45.12;99426.80;231756;200;153593;-61
2024/02/15 14:14:45;;;;;;;7.50;3.70;;;;;;;16.01;45.45;99432.73;231905;204;137313;-61
2024/02/15 14:19:49;;;;;;;6.60;3.50;;;;;;;15.86;47.04;99434.61;231912;198;138225;-60
2024/02/15 14:24:53;;;;;;;7.00;3.20;;;;;;;15.74;46.98;99436.42;231675;199;153271;-61
2024/02/15 14:35:21;;;;;;;7.90;3.50;;;;;;;15.51;47.37;99446.07;232019;201;138031;-61
2024/02/15 14:40:25;;;;;;;15.80;10.50;;;;;;;15.44;47.88;99443.21;232080;201;153418;-61
2024/02/15 14:45:34;;;;;;;6.00;3.30;;;;;;;15.45;47.51;99440.07;231925;201;137898;-59
2024/02/15 14:50:39;;;;;;;11.50;3.50;;;;;;;15.44;47.54;99440.70;231767;197;138071;-61
2024/02/15 14:55:45;;;;;;;7.70;3.40;;;;;;;15.34;47.93;99448.22;231566;201;153725;-64
2024/02/15 15:00:49;;;;;;;7.30;3.70;;;;;;;15.26;48.26;99453.96;231891;201;138603;-59
2024/02/15 15:16:38;;;;;;;9.90;4.50;;;;;;;14.95;49.58;99456.50;231866;201;274160;-62
2024/02/15 15:21:43;;;;;;;164.60;93.50;;;;;;;14.82;50.65;99460.48;231951;201;137866;-62
2024/02/15 15:26:46;;;;;;;13.40;5.60;;;;;;;14.73;50.54;99465.23;231730;198;153552;-60
2024/02/15 15:31:51;;;;;;;10.60;4.50;;;;;;;14.58;50.93;99462.02;231857;201;137648;-61
2024/02/15 15:36:54;;;;;;;65.20;42.00;;;;;;;14.45;51.51;99464.88;231936;204;137392;-62
2024/02/15 15:41:58;;;;;;;12.50;4.40;;;;;;;14.37;51.93;99462.41;231816;198;153456;-61
2024/02/15 15:47:02;;;;;;;12.60;3.90;;;;;;;14.23;52.03;99466.77;231688;205;138173;-60
2024/02/15 15:52:06;;;;;;;10.30;4.00;;;;;;;14.11;52.18;99469.59;231904;197;138703;-60
2024/02/15 15:57:09;;;;;;;12.30;4.20;;;;;;;13.99;52.45;99474.71;231946;201;155203;-61
2024/02/15 16:02:12;;;;;;;11.30;4.10;;;;;;;13.84;52.68;99477.15;231785;201;137761;-61
2024/02/15 16:07:16;;;;;;;13.70;4.30;;;;;;;13.71;53.12;99482.86;231693;199;138187;-61
2024/02/15 16:12:21;;;;;;;17.00;5.90;;;;;;;13.59;53.52;99487.95;231659;198;153223;-62
2024/02/15 16:17:24;;;;;;;11.30;5.90;;;;;;;13.48;53.96;99484.40;231897;204;139301;-61
2024/02/15 16:22:27;;;;;;;14.70;6.20;;;;;;;13.39;54.29;99488.42;232101;204;138217;-61
2024/02/15 16:27:34;;;;;;;18.10;6.70;;;;;;;13.28;54.81;99490.38;231937;197;154013;-61
2024/02/15 16:32:38;;;;;;;22.80;7.30;;;;;;;13.17;55.12;99489.12;231847;197;138479;-61
2024/02/15 16:37:42;;;;;;;20.40;7.40;;;;;;;13.07;55.54;99492.59;231960;201;138175;-62
2024/02/15 16:42:47;;;;;;;55.20;36.50;;;;;;;12.96;56.19;99498.63;231685;205;153334;-59
2024/02/15 16:47:59;;;;;;;18.30;9.60;;;;;;;12.92;56.63;99501.61;231765;204;138735;-59
2024/02/15 16:53:03;;;;;;;19.20;9.60;;;;;;;12.84;56.71;99501.20;231893;201;137863;-60
2024/02/15 16:58:10;;;;;;;20.80;9.00;;;;;;;12.79;56.90;99507.59;232014;204;153202;-60
2024/02/15 17:03:15;;;;;;;24.20;9.80;;;;;;;12.73;56.93;99510.10;231858;204;138502;-60
2024/02/15 17:08:19;;;;;;;29.90;16.60;;;;;;;12.70;57.14;99515.63;231901;201;142451;-64
2024/02/15 17:13:22;;;;;;;22.80;11.00;;;;;;;12.70;57.64;99520.78;231758;204;153334;-64
2024/02/15 17:18:26;;;;;;;20.10;11.00;;;;;;;12.64;57.25;99525.64;231917;198;138050;-64
2024/02/15 17:23:30;;;;;;;27.20;12.30;;;;;;;12.58;57.33;99533.84;231788;200;137953;-64
2024/02/15 17:28:33;;;;;;;28.10;12.20;;;;;;;12.51;57.36;99532.65;231774;198;153970;-63
2024/02/15 17:33:39;;;;;;;26.00;12.50;;;;;;;12.44;57.54;99538.09;232037;204;137744;-65
2024/02/15 17:38:42;;;;;;;26.70;12.90;;;;;;;12.39;57.82;99542.48;231804;205;137718;-64
2024/02/15 17:43:47;;;;;;;26.80;13.70;;;;;;;12.33;57.96;99542.70;231793;198;152954;-64
2024/02/15 17:48:50;;;;;;;30.60;15.20;;;;;;;12.28;58.11;99543.66;231777;198;138729;-62
2024/02/15 17:53:54;;;;;;;33.80;16.40;;;;;;;12.24;58.29;99543.02;231900;197;138572;-62
2024/02/15 17:58:57;;;;;;;35.90;17.20;;;;;;;12.20;58.36;99542.05;231745;198;153381;-63
2024/02/15 18:04:01;;;;;;;38.10;17.20;;;;;;;12.13;58.55;99546.37;231827;198;138266;-63
2024/02/15 18:09:06;;;;;;;33.70;18.10;;;;;;;12.07;58.75;99551.19;231941;201;139880;-63
2024/02/15 18:14:09;;;;;;;101.40;66.10;;;;;;;12.03;59.36;99551.25;231732;197;154267;-63
2024/02/15 18:19:13;;;;;;;39.60;23.00;;;;;;;12.03;59.34;99548.38;231882;198;138633;-62
2024/02/15 18:24:16;;;;;;;62.60;36.40;;;;;;;12.02;59.42;99549.36;231791;201;139042;-62
2024/02/15 18:29:19;;;;;;;42.90;22.50;;;;;;;11.95;59.02;99548.02;231968;198;154904;-64
2024/02/15 18:34:22;;;;;;;39.00;22.40;;;;;;;11.82;58.94;99547.86;231903;201;137266;-63
2024/02/15 18:39:26;;;;;;;80.30;60.40;;;;;;;11.71;60.04;99554.73;231612;198;138658;-67
2024/02/15 18:44:32;;;;;;;;;;;;;;;11.71;59.89;99555.98;231747;204;153887;-66
2024/02/15 18:49:35;;;;;;;37.90;22.10;;;;;;;11.62;59.38;99561.46;231904;198;137600;-68
2024/02/15 18:54:45;;;;;;;33.80;20.90;;;;;;;11.50;59.57;99564.79;231750;201;138379;-67
2024/02/15 18:59:49;;;;;;;39.20;20.70;;;;;;;11.43;59.81;99565.94;231907;204;153663;-69
2024/02/15 19:04:52;;;;;;;34.00;20.10;;;;;;;11.35;59.93;99571.36;231907;201;141262;-71
2024/02/15 19:09:55;;;;;;;34.30;19.40;;;;;;;11.27;60.14;99579.64;231981;204;137563;-64
2024/02/15 19:15:04;;;;;;;35.70;19.90;;;;;;;11.21;60.17;99576.04;231728;205;153711;-64
2024/02/15 19:20:10;;;;;;;37.30;19.80;;;;;;;11.18;60.32;99574.99;231773;204;138111;-63
2024/02/15 19:25:20;;;;;;;35.10;20.20;;;;;;;11.13;60.51;99571.89;231863;201;137492;-62
2024/02/15 19:30:25;;;;;;;40.10;21.50;;;;;;;11.09;60.45;99574.23;231691;198;154141;-64
2024/02/15 19:35:30;;;;;;;100.60;64.80;;;;;;;11.05;60.79;99580.84;231653;205;138136;-62
2024/02/15 19:40:35;;;;;;;40.30;24.50;;;;;;;11.12;61.53;99583.80;231997;201;137829;-62
2024/02/15 19:45:41;;;;;;;41.10;22.20;;;;;;;11.05;60.58;99582.23;232056;198;153256;-61
2024/02/15 19:50:45;;;;;;;38.10;22.90;;;;;;;10.92;60.62;99582.43;231652;199;138127;-63
2024/02/15 19:55:48;;;;;;;37.90;21.70;;;;;;;10.85;60.86;99578.54;231893;198;138059;-62
2024/02/15 20:00:51;;;;;;;38.40;22.40;;;;;;;10.74;60.77;99577.21;231575;197;153732;-62
2024/02/15 20:05:58;;;;;;;36.70;22.10;;;;;;;10.63;60.90;99582.03;231881;201;138222;-63
2024/02/15 20:11:02;;;;;;;38.20;23.10;;;;;;;10.53;61.23;99582.45;231954;201;139528;-64
2024/02/15 20:16:05;;;;;;;39.40;23.20;;;;;;;10.41;61.44;99583.56;232161;204;161454;-62
2024/02/15 20:21:11;;;;;;;42.00;22.70;;;;;;;10.33;61.59;99582.25;231750;198;141893;-63
2024/02/15 20:26:15;;;;;;;39.10;22.30;;;;;;;10.23;61.66;99583.09;231855;201;141122;-63
2024/02/15 20:31:18;;;;;;;39.20;23.20;;;;;;;10.15;61.94;99579.76;231884;204;153199;-62
2024/02/15 20:36:23;;;;;;;38.20;22.50;;;;;;;10.07;62.00;99577.86;231637;200;141750;-61
2024/02/15 20:41:26;;;;;;;37.50;22.70;;;;;;;9.99;62.17;99577.92;231810;204;138274;-63
2024/02/15 20:46:32;;;;;;;37.10;22.50;;;;;;;9.90;62.35;99578.05;232077;204;154082;-62
2024/02/15 20:51:37;;;;;;;40.50;22.40;;;;;;;9.80;62.47;99581.18;232028;201;137528;-62
2024/02/15 20:56:42;;;;;;;39.80;23.00;;;;;;;9.70;62.65;99580.27;231877;205;138098;-60
2024/02/15 21:01:47;;;;;;;38.70;23.10;;;;;;;9.61;62.95;99581.62;231717;201;154234;-61
2024/02/15 21:06:51;;;;;;;43.40;24.00;;;;;;;9.52;63.25;99579.59;231823;198;138000;-61
2024/02/15 21:11:55;;;;;;;45.80;22.90;;;;;;;9.46;63.46;99582.86;231919;198;137760;-61
2024/02/15 21:16:58;;;;;;;40.00;22.80;;;;;;;9.40;63.54;99582.48;231891;198;154083;-61
2024/02/15 21:22:02;;;;;;;45.10;22.80;;;;;;;9.34;63.69;99579.77;232138;200;137187;-61
2024/02/15 21:27:05;;;;;;;43.40;24.20;;;;;;;9.25;63.88;99581.26;232047;201;138248;-63
2024/02/15 21:32:13;;;;;;;41.80;24.30;;;;;;;9.18;64.12;99578.55;231956;204;152977;-63
2024/02/15 21:37:23;;;;;;;42.90;23.20;;;;;;;9.13;64.17;99576.68;231859;202;138373;-63
2024/02/15 21:42:27;;;;;;;42.60;23.90;;;;;;;9.06;64.24;99570.66;231936;204;137601;-64
2024/02/15 21:47:31;;;;;;;43.50;24.40;;;;;;;8.98;64.39;99573.66;231991;201;154880;-63
2024/02/15 21:52:34;;;;;;;41.80;24.90;;;;;;;8.89;64.51;99576.73;231920;197;141829;-62
2024/02/15 21:57:37;;;;;;;48.30;23.20;;;;;;;8.80;64.78;99575.18;232103;198;137733;-61
2024/02/15 22:02:40;;;;;;;45.90;22.50;;;;;;;8.79;64.95;99573.66;231790;204;154324;-62
2024/02/15 22:07:44;;;;;;;60.80;23.70;;;;;;;8.82;64.73;99569.29;231900;198;138275;-62
2024/02/15 22:12:47;;;;;;;59.30;24.50;;;;;;;8.83;64.64;99570.48;231962;201;142269;-61
2024/02/15 22:17:55;;;;;;;57.60;26.00;;;;;;;8.78;64.56;99572.13;231924;201;153168;-64
2024/02/15 22:22:59;;;;;;;66.40;26.20;;;;;;;8.69;64.69;99571.82;231963;204;139374;-64
2024/02/15 22:28:04;;;;;;;63.10;24.90;;;;;;;8.61;64.66;99574.66;231951;202;138739;-63
2024/02/15 22:33:07;;;;;;;55.20;24.70;;;;;;;8.52;64.88;99569.59;231799;201;153008;-63
2024/02/15 22:38:10;;;;;;;60.10;24.90;;;;;;;8.43;64.95;99574.23;231824;205;138073;-62
2024/02/15 22:43:14;;;;;;;52.70;24.30;;;;;;;8.31;65.33;99578.07;231950;201;138157;-62
2024/02/15 22:48:17;;;;;;;50.80;24.40;;;;;;;8.21;65.36;99574.81;231950;198;153197;-64
2024/02/15 22:53:20;;;;;;;49.20;24.40;;;;;;;8.11;65.61;99576.66;231895;204;138554;-63
2024/02/15 22:58:26;;;;;;;41.40;23.10;;;;;;;8.01;65.76;99582.58;232091;202;137391;-63
2024/02/15 23:03:29;;;;;;;48.20;24.50;;;;;;;7.94;66.11;99583.40;231948;201;153826;-61
2024/02/15 23:08:33;;;;;;;46.80;25.30;;;;;;;7.89;66.20;99584.52;231936;198;138402;-63
2024/02/15 23:13:39;;;;;;;45.80;24.90;;;;;;;7.79;66.28;99583.68;231907;198;137902;-62
2024/02/15 23:18:43;;;;;;;48.50;25.00;;;;;;;7.71;66.43;99584.91;231802;198;153228;-62
2024/02/15 23:23:47;;;;;;;48.00;25.30;;;;;;;7.65;66.63;99583.39;231462;205;138650;-61
2024/02/15 23:28:50;;;;;;;44.40;24.40;;;;;;;7.59;66.79;99581.16;231552;201;138640;-64
2024/02/15 23:33:53;;;;;;;38.30;24.50;;;;;;;7.50;66.93;99581.88;231880;198;153214;-62
2024/02/15 23:44:28;;;;;;;58.10;28.20;;;;;;;7.37;67.43;99577.84;232082;200;137775;-61
2024/02/15 23:49:33;;;;;;;48.00;24.20;;;;;;;7.29;67.39;99583.60;231773;198;156419;-61
2024/02/15 23:54:37;;;;;;;50.70;27.40;;;;;;;7.25;67.57;99587.13;231807;197;138778;-64
2024/02/15 23:59:40;;;;;;;51.50;28.60;;;;;;;7.26;67.71;99587.27;231353;197;138756;-64
